createdAt,value
2018-12-09T00:01:58.403Z,2.03
2018-12-09T00:07:01.745Z,1.43
2018-12-09T00:12:05.384Z,1.27
2018-12-09T00:17:08.710Z,0.97
2018-12-09T00:22:12.341Z,1.10
2018-12-09T00:27:15.869Z,0.97
2018-12-09T00:32:19.273Z,1.13
2018-12-09T00:37:22.692Z,1.03
2018-12-09T00:42:25.967Z,1.20
2018-12-09T00:47:29.380Z,1.37
2018-12-09T00:52:32.942Z,1.57
2018-12-09T00:57:36.514Z,1.50
2018-12-09T01:02:39.955Z,1.93
2018-12-09T01:07:43.331Z,2.20
2018-12-09T01:12:54.161Z,1.57
2018-12-09T01:17:57.536Z,2.87
2018-12-09T01:23:00.919Z,1.93
2018-12-09T01:28:04.330Z,2.07
2018-12-09T01:33:07.673Z,1.97
2018-12-09T01:38:11.066Z,2.03
2018-12-09T01:43:14.545Z,1.67
2018-12-09T01:48:18.223Z,2.60
2018-12-09T01:54:00.344Z,2.73
2018-12-09T01:59:03.747Z,2.70
2018-12-09T02:04:07.290Z,3.23
2018-12-09T02:09:10.894Z,1.53
2018-12-09T02:14:14.294Z,1.77
2018-12-09T02:19:37.027Z,2.77
2018-12-09T02:24:40.437Z,1.77
2018-12-09T02:29:43.780Z,3.23
2018-12-09T02:35:06.642Z,2.37
2018-12-09T02:40:10.072Z,3.57
2018-12-09T02:45:13.626Z,3.20
2018-12-09T02:50:17.077Z,3.37
2018-12-09T02:55:20.531Z,2.87
2018-12-09T03:00:43.269Z,3.27
2018-12-09T03:05:46.706Z,3.97
2018-12-09T03:10:50.051Z,4.27
2018-12-09T03:15:53.526Z,3.30
2018-12-09T03:20:56.836Z,3.57
2018-12-09T03:26:00.320Z,3.90
2018-12-09T03:31:03.713Z,3.50
2018-12-09T03:36:07.005Z,2.83
2018-12-09T03:41:10.383Z,2.87
2018-12-09T03:46:13.693Z,3.30
2018-12-09T03:51:17.146Z,3.10
2018-12-09T03:56:20.488Z,3.60
2018-12-09T04:01:23.854Z,2.90
2018-12-09T04:06:27.232Z,2.90
2018-12-09T04:11:30.728Z,4.57
2018-12-09T04:16:34.034Z,3.53
2018-12-09T04:21:37.697Z,4.30
2018-12-09T04:26:41.075Z,3.17
2018-12-09T04:31:44.474Z,2.97
2018-12-09T04:37:07.234Z,2.40
2018-12-09T04:42:10.590Z,2.70
2018-12-09T04:47:13.966Z,3.27
2018-12-09T04:52:17.310Z,3.80
2018-12-09T04:57:20.685Z,3.23
2018-12-09T05:02:24.073Z,2.10
2018-12-09T05:07:27.463Z,3.50
2018-12-09T05:12:31.085Z,4.03
2018-12-09T05:17:34.574Z,5.70
2018-12-09T05:22:37.993Z,3.57
2018-12-09T05:27:41.299Z,5.70
2018-12-09T05:32:44.709Z,3.67
2018-12-09T05:37:48.093Z,3.87
2018-12-09T05:42:51.716Z,4.30
2018-12-09T05:47:55.079Z,4.13
2018-12-09T05:52:58.445Z,3.63
2018-12-09T05:58:01.832Z,4.50
2018-12-09T06:03:05.216Z,4.17
2018-12-09T06:08:08.565Z,4.90
2018-12-09T06:13:11.946Z,3.80
2018-12-09T06:18:15.591Z,4.07
2018-12-09T06:23:18.949Z,4.80
2018-12-09T06:28:22.370Z,3.77
2018-12-09T06:33:25.761Z,4.27
2018-12-09T06:38:29.264Z,5.33
2018-12-09T06:43:32.672Z,3.87
2018-12-09T06:48:36.063Z,4.63
2018-12-09T06:53:39.414Z,3.77
2018-12-09T06:58:42.824Z,3.90
2018-12-09T07:03:46.362Z,4.07
2018-12-09T07:08:49.694Z,2.17
2018-12-09T07:13:53.078Z,3.30
2018-12-09T07:18:56.484Z,4.43
2018-12-09T07:24:00.001Z,4.27
2018-12-09T07:29:03.377Z,3.47
2018-12-09T07:34:06.747Z,3.10
2018-12-09T07:39:10.130Z,2.40
2018-12-09T07:44:13.533Z,2.73
2018-12-09T07:49:16.937Z,2.33
2018-12-09T07:54:20.280Z,2.30
2018-12-09T07:59:23.646Z,2.50
2018-12-09T08:04:27.041Z,2.53
2018-12-09T08:09:30.404Z,2.53
2018-12-09T08:14:54.665Z,2.13
2018-12-09T08:19:58.091Z,1.97
2018-12-09T08:25:01.460Z,1.93
2018-12-09T08:30:04.899Z,2.17
2018-12-09T08:35:08.297Z,2.03
2018-12-09T08:40:11.688Z,2.13
2018-12-09T08:45:16.904Z,1.60
2018-12-09T08:50:20.275Z,1.20
2018-12-09T08:55:23.577Z,2.83
2018-12-09T09:00:46.404Z,1.97
2018-12-09T09:10:59.572Z,2.03
2018-12-09T09:16:02.905Z,1.37
2018-12-09T09:21:06.282Z,1.40
2018-12-09T09:26:09.676Z,1.10
2018-12-09T09:31:13.094Z,1.40
2018-12-09T09:36:16.540Z,1.10
2018-12-09T09:41:20.199Z,1.07
2018-12-09T09:46:23.614Z,1.13
2018-12-09T09:51:26.984Z,0.70
2018-12-09T09:56:30.319Z,1.60
2018-12-09T10:01:33.708Z,1.37
2018-12-09T10:06:37.107Z,0.67
2018-12-09T10:11:40.524Z,0.60
2018-12-09T10:16:44.147Z,1.50
2018-12-09T10:21:47.651Z,0.50
2018-12-09T10:26:50.984Z,0.70
2018-12-09T10:31:54.323Z,0.80
2018-12-09T10:36:57.708Z,1.00
2018-12-09T10:42:01.071Z,0.97
2018-12-09T10:47:04.451Z,0.77
2018-12-09T10:52:07.912Z,1.20
2018-12-09T10:57:11.312Z,0.70
2018-12-09T11:02:33.752Z,0.70
2018-12-09T11:07:49.860Z,0.60
2018-12-09T11:12:53.294Z,0.73
2018-12-09T11:18:16.062Z,0.60
2018-12-09T11:23:19.397Z,0.97
2018-12-09T11:28:22.803Z,0.83
2018-12-09T11:33:26.144Z,0.90
2018-12-09T11:38:29.748Z,0.50
2018-12-09T11:43:33.128Z,0.73
2018-12-09T11:48:36.641Z,1.00
2018-12-09T11:53:40.038Z,0.90
2018-12-09T11:58:43.401Z,0.80
2018-12-09T12:03:46.734Z,0.50
2018-12-09T12:08:50.121Z,0.67
2018-12-09T12:13:53.609Z,0.83
2018-12-09T12:18:57.016Z,0.70
2018-12-09T12:24:12.866Z,1.10
2018-12-09T12:29:16.371Z,1.10
2018-12-09T12:34:19.722Z,1.30
2018-12-09T12:39:23.141Z,1.70
2018-12-09T12:44:26.515Z,1.70
2018-12-09T12:49:30.355Z,2.33
2018-12-09T12:54:33.730Z,2.07
2018-12-09T12:59:37.125Z,1.40
2018-12-09T13:04:40.462Z,1.67
2018-12-09T13:09:43.888Z,1.47
2018-12-09T13:14:47.285Z,1.33
2018-12-09T13:19:50.681Z,2.43
2018-12-09T13:24:54.112Z,2.43
2018-12-09T13:29:57.565Z,1.90
2018-12-09T13:35:00.982Z,2.77
2018-12-09T13:40:04.402Z,2.47
2018-12-09T13:45:09.119Z,2.90
2018-12-09T13:50:12.517Z,3.20
2018-12-09T13:55:15.938Z,3.23
2018-12-09T14:00:38.743Z,3.30
2018-12-09T14:05:42.282Z,2.37
2018-12-09T14:10:45.648Z,2.83
2018-12-09T14:15:49.222Z,2.83
2018-12-09T14:20:52.642Z,1.97
2018-12-09T14:25:56.000Z,2.87
2018-12-09T14:30:59.386Z,2.10
2018-12-09T14:36:02.800Z,3.00
2018-12-09T14:41:06.214Z,1.70
2018-12-09T14:46:09.592Z,2.73
2018-12-09T14:51:13.051Z,1.90
2018-12-09T14:56:16.416Z,5.50
2018-12-09T15:06:26.518Z,3.30
2018-12-09T15:11:28.975Z,2.00
2018-12-09T15:26:47.425Z,2.50
2018-12-09T15:32:09.193Z,2.53
2018-12-09T15:42:19.533Z,3.37
2018-12-09T16:02:46.621Z,3.57
2018-12-09T16:18:05.850Z,2.77
2018-12-09T16:23:08.290Z,2.20
2018-12-09T16:33:32.390Z,2.07
2018-12-09T16:38:34.807Z,3.60
2018-12-09T16:59:01.576Z,5.67
2018-12-09T17:04:03.953Z,11.53
2018-12-09T17:14:14.607Z,4.23
2018-12-09T17:29:46.255Z,5.60
2018-12-09T17:35:08.062Z,7.47
2018-12-09T17:50:55.569Z,4.97
2018-12-09T17:55:57.929Z,3.97
2018-12-09T18:01:00.391Z,3.77
2018-12-09T18:11:24.378Z,8.13
2018-12-09T18:21:35.318Z,2.57
2018-12-09T18:26:37.740Z,3.00
2018-12-09T18:47:05.312Z,3.27
2018-12-09T19:02:23.675Z,9.90
2018-12-09T19:17:42.898Z,5.17
2018-12-09T19:22:45.255Z,3.67
2018-12-09T19:38:04.924Z,5.03
2018-12-09T19:48:15.849Z,5.43
2018-12-09T19:53:18.696Z,4.10
2018-12-09T19:58:21.124Z,7.17
2018-12-09T20:03:23.506Z,5.53
2018-12-09T20:08:25.871Z,4.13
2018-12-09T20:13:47.906Z,4.60
2018-12-09T20:18:50.304Z,4.67
2018-12-09T20:23:52.714Z,5.40
2018-12-09T20:28:55.147Z,4.13
2018-12-09T20:34:16.963Z,3.67
2018-12-09T21:00:41.193Z,3.40
2018-12-09T21:10:52.518Z,7.30
2018-12-09T21:21:23.620Z,3.20
2018-12-09T21:26:26.036Z,3.70
2018-12-09T21:36:36.558Z,3.40
2018-12-09T21:41:38.934Z,6.60
2018-12-09T21:56:57.898Z,3.20
2018-12-09T22:07:21.871Z,3.00
2018-12-09T22:27:49.123Z,4.37
2018-12-09T22:33:11.100Z,2.90
2018-12-09T22:43:35.099Z,4.47
2018-12-09T22:48:37.513Z,2.47
2018-12-09T22:53:39.913Z,3.37
2018-12-09T23:14:07.250Z,3.27
2018-12-09T23:24:17.578Z,3.73
2018-12-09T23:34:27.823Z,3.87
2018-12-09T23:39:30.224Z,3.60
2018-12-09T23:54:49.891Z,2.00
